Airport ID:K7S1
Update Time (UTC):26/01/2021 23:34
Wind Speed (Knots):4
Wind Direction (Magnetic):230
Temperature (°C):-3
Dew Point (°C):-13
Humidity (%):47
Altimeter (inHg):29.7
Density Altitude (Feet):
Visibility:10+
Clouds (Hundreds of feet):CLR
Present Weather:
METAR:METAR K7S1 262330Z AUTO 25005KT 10SM CLR M03/M13 A2971 RMK AO2

The data displayed is for advisory purposes only and is not to be used for flight planning or operations.